sensor_id;sensor_type;location;lat;lon;timestamp;temperature;humidity
77277;DHT22;66330;52.166;9.978;2023-05-13T00:01:11;14.40;59.10
77277;DHT22;66330;52.166;9.978;2023-05-13T00:03:36;14.20;58.80
77277;DHT22;66330;52.166;9.978;2023-05-13T00:06:02;14.40;59.40
77277;DHT22;66330;52.166;9.978;2023-05-13T00:13:19;13.80;58.30
77277;DHT22;66330;52.166;9.978;2023-05-13T00:15:45;14.20;58.90
77277;DHT22;66330;52.166;9.978;2023-05-13T00:18:11;13.80;58.40
77277;DHT22;66330;52.166;9.978;2023-05-13T00:20:36;13.60;58.80
77277;DHT22;66330;52.166;9.978;2023-05-13T00:23:02;14.20;59.30
77277;DHT22;66330;52.166;9.978;2023-05-13T00:25:28;14.00;59.40
77277;DHT22;66330;52.166;9.978;2023-05-13T00:27:53;13.40;58.90
77277;DHT22;66330;52.166;9.978;2023-05-13T00:30:19;13.40;58.80
77277;DHT22;66330;52.166;9.978;2023-05-13T00:32:45;13.50;59.00
77277;DHT22;66330;52.166;9.978;2023-05-13T00:35:11;13.90;59.40
77277;DHT22;66330;52.166;9.978;2023-05-13T00:37:36;13.80;59.30
77277;DHT22;66330;52.166;9.978;2023-05-13T00:40:02;13.80;59.10
77277;DHT22;66330;52.166;9.978;2023-05-13T00:42:28;13.10;58.50
77277;DHT22;66330;52.166;9.978;2023-05-13T00:44:53;13.60;59.50
77277;DHT22;66330;52.166;9.978;2023-05-13T00:47:19;12.90;58.70
77277;DHT22;66330;52.166;9.978;2023-05-13T00:49:46;12.70;58.50
77277;DHT22;66330;52.166;9.978;2023-05-13T00:52:11;12.80;58.70
77277;DHT22;66330;52.166;9.978;2023-05-13T00:54:37;13.30;59.70
77277;DHT22;66330;52.166;9.978;2023-05-13T00:57:02;13.00;59.20
77277;DHT22;66330;52.166;9.978;2023-05-13T00:59:29;12.90;59.50
77277;DHT22;66330;52.166;9.978;2023-05-13T01:04:49;13.30;60.40
77277;DHT22;66330;52.166;9.978;2023-05-13T01:10:07;12.70;60.00
77277;DHT22;66330;52.166;9.978;2023-05-13T01:12:39;12.60;60.10
77277;DHT22;66330;52.166;9.978;2023-05-13T01:15:08;13.10;61.50
77277;DHT22;66330;52.166;9.978;2023-05-13T01:18:18;12.50;60.10
77277;DHT22;66330;52.166;9.978;2023-05-13T01:20:41;12.30;60.30
77277;DHT22;66330;52.166;9.978;2023-05-13T01:23:08;12.80;61.00
77277;DHT22;66330;52.166;9.978;2023-05-13T01:25:34;12.70;61.00
77277;DHT22;66330;52.166;9.978;2023-05-13T01:28:00;13.00;61.50
77277;DHT22;66330;52.166;9.978;2023-05-13T01:30:25;12.80;60.90
77277;DHT22;66330;52.166;9.978;2023-05-13T01:32:51;12.70;61.00
77277;DHT22;66330;52.166;9.978;2023-05-13T01:35:18;12.60;61.60
77277;DHT22;66330;52.166;9.978;2023-05-13T01:37:45;12.40;61.60
77277;DHT22;66330;52.166;9.978;2023-05-13T01:40:12;12.30;61.40
77277;DHT22;66330;52.166;9.978;2023-05-13T01:42:38;12.10;61.30
77277;DHT22;66330;52.166;9.978;2023-05-13T01:45:05;12.10;61.40
77277;DHT22;66330;52.166;9.978;2023-05-13T01:47:31;11.90;61.40
77277;DHT22;66330;52.166;9.978;2023-05-13T01:49:56;11.90;61.40
77277;DHT22;66330;52.166;9.978;2023-05-13T01:52:22;11.60;61.20
77277;DHT22;66330;52.166;9.978;2023-05-13T01:54:48;12.20;62.00
77277;DHT22;66330;52.166;9.978;2023-05-13T01:57:13;12.00;62.20
77277;DHT22;66330;52.166;9.978;2023-05-13T01:59:39;12.20;62.50
77277;DHT22;66330;52.166;9.978;2023-05-13T02:02:04;12.20;62.80
77277;DHT22;66330;52.166;9.978;2023-05-13T02:04:30;12.20;62.50
77277;DHT22;66330;52.166;9.978;2023-05-13T02:06:56;11.40;61.40
77277;DHT22;66330;52.166;9.978;2023-05-13T02:09:22;12.10;62.90
77277;DHT22;66330;52.166;9.978;2023-05-13T02:11:47;12.10;63.30
77277;DHT22;66330;52.166;9.978;2023-05-13T02:14:13;11.50;62.80
77277;DHT22;66330;52.166;9.978;2023-05-13T02:16:38;11.50;62.80
77277;DHT22;66330;52.166;9.978;2023-05-13T02:19:04;12.10;63.40
77277;DHT22;66330;52.166;9.978;2023-05-13T02:21:30;11.30;62.80
77277;DHT22;66330;52.166;9.978;2023-05-13T02:23:56;11.90;63.60
77277;DHT22;66330;52.166;9.978;2023-05-13T02:26:22;12.10;63.80
77277;DHT22;66330;52.166;9.978;2023-05-13T02:28:47;11.80;63.50
77277;DHT22;66330;52.166;9.978;2023-05-13T02:31:13;11.80;63.70
77277;DHT22;66330;52.166;9.978;2023-05-13T02:33:38;11.90;63.90
77277;DHT22;66330;52.166;9.978;2023-05-13T02:36:04;11.70;63.80
77277;DHT22;66330;52.166;9.978;2023-05-13T02:38:30;11.40;63.50
77277;DHT22;66330;52.166;9.978;2023-05-13T02:40:55;11.90;64.20
77277;DHT22;66330;52.166;9.978;2023-05-13T02:43:21;11.90;64.30
77277;DHT22;66330;52.166;9.978;2023-05-13T02:45:47;11.40;64.00
77277;DHT22;66330;52.166;9.978;2023-05-13T02:48:13;11.80;64.60
77277;DHT22;66330;52.166;9.978;2023-05-13T02:50:39;11.80;64.70
77277;DHT22;66330;52.166;9.978;2023-05-13T02:53:05;12.00;64.90
77277;DHT22;66330;52.166;9.978;2023-05-13T02:55:31;11.90;64.80
77277;DHT22;66330;52.166;9.978;2023-05-13T02:57:57;11.90;64.70
77277;DHT22;66330;52.166;9.978;2023-05-13T03:00:22;11.40;64.20
77277;DHT22;66330;52.166;9.978;2023-05-13T03:02:48;11.90;64.70
77277;DHT22;66330;52.166;9.978;2023-05-13T03:05:13;11.40;64.10
77277;DHT22;66330;52.166;9.978;2023-05-13T03:07:39;12.00;64.80
77277;DHT22;66330;52.166;9.978;2023-05-13T03:10:05;11.80;64.40
77277;DHT22;66330;52.166;9.978;2023-05-13T03:12:31;11.40;63.70
77277;DHT22;66330;52.166;9.978;2023-05-13T03:14:56;11.90;64.50
77277;DHT22;66330;52.166;9.978;2023-05-13T03:17:22;12.20;65.00
77277;DHT22;66330;52.166;9.978;2023-05-13T03:19:47;12.00;64.90
77277;DHT22;66330;52.166;9.978;2023-05-13T03:22:13;12.00;64.80
77277;DHT22;66330;52.166;9.978;2023-05-13T03:24:38;11.80;64.60
77277;DHT22;66330;52.166;9.978;2023-05-13T03:27:04;11.30;63.40
77277;DHT22;66330;52.166;9.978;2023-05-13T03:29:30;14.70;68.10
77277;DHT22;66330;52.166;9.978;2023-05-13T03:31:55;11.80;64.10
77277;DHT22;66330;52.166;9.978;2023-05-13T03:34:21;11.80;64.90
77277;DHT22;66330;52.166;9.978;2023-05-13T03:39:12;11.40;63.90
77277;DHT22;66330;52.166;9.978;2023-05-13T03:41:38;11.40;64.70
77277;DHT22;66330;52.166;9.978;2023-05-13T03:44:03;12.00;65.20
77277;DHT22;66330;52.166;9.978;2023-05-13T03:46:29;12.10;65.40
77277;DHT22;66330;52.166;9.978;2023-05-13T03:48:56;12.20;65.40
77277;DHT22;66330;52.166;9.978;2023-05-13T03:51:21;12.00;65.10
77277;DHT22;66330;52.166;9.978;2023-05-13T03:53:47;11.50;64.40
77277;DHT22;66330;52.166;9.978;2023-05-13T03:56:13;12.10;65.40
77277;DHT22;66330;52.166;9.978;2023-05-13T03:58:39;12.00;64.90
77277;DHT22;66330;52.166;9.978;2023-05-13T04:01:06;12.10;65.40
77277;DHT22;66330;52.166;9.978;2023-05-13T04:03:31;12.00;65.20
77277;DHT22;66330;52.166;9.978;2023-05-13T04:05:57;11.80;64.80
77277;DHT22;66330;52.166;9.978;2023-05-13T04:08:22;12.00;65.10
77277;DHT22;66330;52.166;9.978;2023-05-13T04:10:48;12.10;65.30
77277;DHT22;66330;52.166;9.978;2023-05-13T04:13:14;12.10;65.20
77277;DHT22;66330;52.166;9.978;2023-05-13T04:15:39;12.20;65.40
77277;DHT22;66330;52.166;9.978;2023-05-13T04:18:05;11.70;64.80
77277;DHT22;66330;52.166;9.978;2023-05-13T04:20:31;12.20;65.40
77277;DHT22;66330;52.166;9.978;2023-05-13T04:22:56;12.10;65.40
77277;DHT22;66330;52.166;9.978;2023-05-13T04:25:22;12.10;65.30
77277;DHT22;66330;52.166;9.978;2023-05-13T04:27:47;11.80;64.80
77277;DHT22;66330;52.166;9.978;2023-05-13T04:30:13;12.50;65.40
77277;DHT22;66330;52.166;9.978;2023-05-13T04:32:39;11.90;64.70
77277;DHT22;66330;52.166;9.978;2023-05-13T04:35:07;12.40;65.30
77277;DHT22;66330;52.166;9.978;2023-05-13T04:37:33;12.10;65.00
77277;DHT22;66330;52.166;9.978;2023-05-13T04:39:58;12.60;65.60
77277;DHT22;66330;52.166;9.978;2023-05-13T04:42:24;12.80;65.40
77277;DHT22;66330;52.166;9.978;2023-05-13T04:44:49;13.00;65.30
77277;DHT22;66330;52.166;9.978;2023-05-13T04:47:15;13.20;65.10
77277;DHT22;66330;52.166;9.978;2023-05-13T04:49:41;13.20;64.90
77277;DHT22;66330;52.166;9.978;2023-05-13T04:52:07;13.20;64.80
77277;DHT22;66330;52.166;9.978;2023-05-13T04:54:32;13.50;64.90
77277;DHT22;66330;52.166;9.978;2023-05-13T04:57:00;13.20;63.30
77277;DHT22;66330;52.166;9.978;2023-05-13T04:59:26;13.80;64.50
77277;DHT22;66330;52.166;9.978;2023-05-13T05:09:22;14.20;62.20
77277;DHT22;66330;52.166;9.978;2023-05-13T05:14:39;14.30;61.20
77277;DHT22;66330;52.166;9.978;2023-05-13T05:17:28;10.60;57.90
77277;DHT22;66330;52.166;9.978;2023-05-13T05:22:25;14.50;60.40
77277;DHT22;66330;52.166;9.978;2023-05-13T05:24:50;15.40;61.50
77277;DHT22;66330;52.166;9.978;2023-05-13T05:27:16;14.80;60.10
77277;DHT22;66330;52.166;9.978;2023-05-13T05:29:41;15.00;59.90
77277;DHT22;66330;52.166;9.978;2023-05-13T05:32:07;14.90;59.60
77277;DHT22;66330;52.166;9.978;2023-05-13T05:34:32;14.90;59.40
77277;DHT22;66330;52.166;9.978;2023-05-13T05:36:58;14.80;58.70
77277;DHT22;66330;52.166;9.978;2023-05-13T05:39:23;15.30;59.30
77277;DHT22;66330;52.166;9.978;2023-05-13T05:41:49;15.90;59.80
77277;DHT22;66330;52.166;9.978;2023-05-13T05:44:15;15.20;59.10
77277;DHT22;66330;52.166;9.978;2023-05-13T05:46:40;16.40;60.00
77277;DHT22;66330;52.166;9.978;2023-05-13T05:49:06;15.10;59.00
77277;DHT22;66330;52.166;9.978;2023-05-13T05:51:32;16.30;59.80
77277;DHT22;66330;52.166;9.978;2023-05-13T05:53:58;16.20;59.50
77277;DHT22;66330;52.166;9.978;2023-05-13T05:56:23;16.10;59.00
77277;DHT22;66330;52.166;9.978;2023-05-13T05:58:49;12.40;55.70
77277;DHT22;66330;52.166;9.978;2023-05-13T06:01:15;16.50;58.30
77277;DHT22;66330;52.166;9.978;2023-05-13T06:03:40;16.60;57.80
77277;DHT22;66330;52.166;9.978;2023-05-13T06:06:06;16.20;57.30
77277;DHT22;66330;52.166;9.978;2023-05-13T06:08:31;16.40;57.40
77277;DHT22;66330;52.166;9.978;2023-05-13T06:10:57;16.60;57.30
77277;DHT22;66330;52.166;9.978;2023-05-13T06:13:23;17.10;57.10
77277;DHT22;66330;52.166;9.978;2023-05-13T06:15:48;17.30;56.80
77277;DHT22;66330;52.166;9.978;2023-05-13T06:18:14;17.50;56.80
77277;DHT22;66330;52.166;9.978;2023-05-13T06:20:39;18.20;56.40
77277;DHT22;66330;52.166;9.978;2023-05-13T06:23:06;18.60;55.30
77277;DHT22;66330;52.166;9.978;2023-05-13T06:25:31;18.70;54.50
77277;DHT22;66330;52.166;9.978;2023-05-13T06:27:57;19.10;54.00
77277;DHT22;66330;52.166;9.978;2023-05-13T06:30:23;19.50;53.70
77277;DHT22;66330;52.166;9.978;2023-05-13T06:32:49;20.10;53.40
77277;DHT22;66330;52.166;9.978;2023-05-13T06:35:15;20.80;53.20
77277;DHT22;66330;52.166;9.978;2023-05-13T06:37:41;21.00;52.70
77277;DHT22;66330;52.166;9.978;2023-05-13T06:40:07;21.40;52.30
77277;DHT22;66330;52.166;9.978;2023-05-13T06:42:32;21.20;51.60
77277;DHT22;66330;52.166;9.978;2023-05-13T06:44:58;21.90;51.30
77277;DHT22;66330;52.166;9.978;2023-05-13T06:47:23;22.00;50.70
77277;DHT22;66330;52.166;9.978;2023-05-13T06:49:49;22.10;50.10
77277;DHT22;66330;52.166;9.978;2023-05-13T06:52:14;22.30;50.00
77277;DHT22;66330;52.166;9.978;2023-05-13T06:54:40;22.90;49.90
77277;DHT22;66330;52.166;9.978;2023-05-13T06:57:05;23.40;49.70
77277;DHT22;66330;52.166;9.978;2023-05-13T06:59:32;23.00;48.90
77277;DHT22;66330;52.166;9.978;2023-05-13T07:01:57;23.40;48.90
77277;DHT22;66330;52.166;9.978;2023-05-13T07:04:23;24.00;48.90
77277;DHT22;66330;52.166;9.978;2023-05-13T07:06:48;23.90;48.40
77277;DHT22;66330;52.166;9.978;2023-05-13T07:09:16;24.20;47.90
77277;DHT22;66330;52.166;9.978;2023-05-13T07:11:41;24.50;47.50
77277;DHT22;66330;52.166;9.978;2023-05-13T07:14:07;24.60;47.00
77277;DHT22;66330;52.166;9.978;2023-05-13T07:16:32;24.80;46.60
77277;DHT22;66330;52.166;9.978;2023-05-13T07:18:58;25.00;46.50
77277;DHT22;66330;52.166;9.978;2023-05-13T07:21:23;25.20;46.20
77277;DHT22;66330;52.166;9.978;2023-05-13T07:23:49;25.30;45.80
77277;DHT22;66330;52.166;9.978;2023-05-13T07:26:14;25.50;45.60
77277;DHT22;66330;52.166;9.978;2023-05-13T07:28:40;25.50;45.20
77277;DHT22;66330;52.166;9.978;2023-05-13T07:31:06;25.70;45.00
77277;DHT22;66330;52.166;9.978;2023-05-13T07:33:31;25.90;44.60
77277;DHT22;66330;52.166;9.978;2023-05-13T07:35:57;26.00;44.40
77277;DHT22;66330;52.166;9.978;2023-05-13T07:38:23;26.10;44.10
77277;DHT22;66330;52.166;9.978;2023-05-13T07:40:48;26.40;44.00
77277;DHT22;66330;52.166;9.978;2023-05-13T07:43:14;26.40;43.40
77277;DHT22;66330;52.166;9.978;2023-05-13T07:45:50;26.50;43.20
77277;DHT22;66330;52.166;9.978;2023-05-13T07:48:16;26.70;43.10
77277;DHT22;66330;52.166;9.978;2023-05-13T07:50:45;26.90;42.90
77277;DHT22;66330;52.166;9.978;2023-05-13T07:53:11;27.10;42.50
77277;DHT22;66330;52.166;9.978;2023-05-13T07:55:37;27.20;42.30
77277;DHT22;66330;52.166;9.978;2023-05-13T07:58:02;27.20;42.10
77277;DHT22;66330;52.166;9.978;2023-05-13T08:00:28;27.30;42.00
77277;DHT22;66330;52.166;9.978;2023-05-13T08:02:54;27.30;41.50
77277;DHT22;66330;52.166;9.978;2023-05-13T08:05:20;27.30;41.10
77277;DHT22;66330;52.166;9.978;2023-05-13T08:07:46;27.40;40.90
77277;DHT22;66330;52.166;9.978;2023-05-13T08:10:11;27.30;40.70
77277;DHT22;66330;52.166;9.978;2023-05-13T08:12:37;27.40;40.60
77277;DHT22;66330;52.166;9.978;2023-05-13T08:15:05;27.50;41.20
77277;DHT22;66330;52.166;9.978;2023-05-13T08:17:31;27.60;40.50
77277;DHT22;66330;52.166;9.978;2023-05-13T08:19:57;27.80;40.20
77277;DHT22;66330;52.166;9.978;2023-05-13T08:22:22;28.00;40.10
77277;DHT22;66330;52.166;9.978;2023-05-13T08:24:48;28.10;39.80
77277;DHT22;66330;52.166;9.978;2023-05-13T08:27:14;28.30;39.70
77277;DHT22;66330;52.166;9.978;2023-05-13T08:29:40;28.50;39.60
77277;DHT22;66330;52.166;9.978;2023-05-13T08:32:05;28.60;39.30
77277;DHT22;66330;52.166;9.978;2023-05-13T08:34:31;28.80;39.20
77277;DHT22;66330;52.166;9.978;2023-05-13T08:36:56;28.80;38.90
77277;DHT22;66330;52.166;9.978;2023-05-13T08:39:22;29.00;38.70
77277;DHT22;66330;52.166;9.978;2023-05-13T08:41:48;28.90;38.40
77277;DHT22;66330;52.166;9.978;2023-05-13T08:44:17;28.90;38.20
77277;DHT22;66330;52.166;9.978;2023-05-13T08:46:46;28.90;38.30
77277;DHT22;66330;52.166;9.978;2023-05-13T08:49:12;28.90;38.20
77277;DHT22;66330;52.166;9.978;2023-05-13T08:51:38;29.00;38.20
77277;DHT22;66330;52.166;9.978;2023-05-13T08:54:08;29.00;38.50
77277;DHT22;66330;52.166;9.978;2023-05-13T08:56:34;29.10;38.20
77277;DHT22;66330;52.166;9.978;2023-05-13T08:58:59;29.20;38.00
77277;DHT22;66330;52.166;9.978;2023-05-13T09:01:26;29.20;37.90
77277;DHT22;66330;52.166;9.978;2023-05-13T09:04:05;29.00;37.80
77277;DHT22;66330;52.166;9.978;2023-05-13T09:06:31;28.90;37.60
77277;DHT22;66330;52.166;9.978;2023-05-13T09:08:56;28.70;37.70
77277;DHT22;66330;52.166;9.978;2023-05-13T09:11:22;28.60;37.90
77277;DHT22;66330;52.166;9.978;2023-05-13T09:13:59;28.50;38.00
77277;DHT22;66330;52.166;9.978;2023-05-13T09:16:27;28.40;38.00
77277;DHT22;66330;52.166;9.978;2023-05-13T09:19:01;28.40;38.30
77277;DHT22;66330;52.166;9.978;2023-05-13T09:21:30;28.30;38.30
77277;DHT22;66330;52.166;9.978;2023-05-13T09:24:09;28.30;38.40
77277;DHT22;66330;52.166;9.978;2023-05-13T09:26:36;28.20;38.20
77277;DHT22;66330;52.166;9.978;2023-05-13T09:31:45;28.20;38.30
77277;DHT22;66330;52.166;9.978;2023-05-13T09:34:11;28.10;38.10
77277;DHT22;66330;52.166;9.978;2023-05-13T09:36:37;28.10;38.00
77277;DHT22;66330;52.166;9.978;2023-05-13T09:39:03;28.20;38.00
77277;DHT22;66330;52.166;9.978;2023-05-13T09:41:30;28.20;37.90
77277;DHT22;66330;52.166;9.978;2023-05-13T09:43:57;28.20;37.80
77277;DHT22;66330;52.166;9.978;2023-05-13T09:46:24;28.10;37.60
77277;DHT22;66330;52.166;9.978;2023-05-13T09:48:49;28.10;37.70
77277;DHT22;66330;52.166;9.978;2023-05-13T09:51:27;28.10;37.80
77277;DHT22;66330;52.166;9.978;2023-05-13T09:54:02;28.10;37.70
77277;DHT22;66330;52.166;9.978;2023-05-13T09:56:28;28.10;37.40
77277;DHT22;66330;52.166;9.978;2023-05-13T09:58:55;28.10;37.30
77277;DHT22;66330;52.166;9.978;2023-05-13T10:01:21;28.20;37.30
77277;DHT22;66330;52.166;9.978;2023-05-13T10:03:47;28.20;37.20
77277;DHT22;66330;52.166;9.978;2023-05-13T10:06:15;28.20;37.30
77277;DHT22;66330;52.166;9.978;2023-05-13T10:08:44;28.30;37.30
77277;DHT22;66330;52.166;9.978;2023-05-13T10:11:11;28.30;37.40
77277;DHT22;66330;52.166;9.978;2023-05-13T10:13:41;28.50;37.30
77277;DHT22;66330;52.166;9.978;2023-05-13T10:16:08;28.60;37.00
77277;DHT22;66330;52.166;9.978;2023-05-13T10:18:33;28.80;36.80
77277;DHT22;66330;52.166;9.978;2023-05-13T10:21:00;29.10;36.20
77277;DHT22;66330;52.166;9.978;2023-05-13T10:23:27;29.30;35.80
77277;DHT22;66330;52.166;9.978;2023-05-13T10:25:53;29.60;35.10
77277;DHT22;66330;52.166;9.978;2023-05-13T10:28:24;29.90;34.60
77277;DHT22;66330;52.166;9.978;2023-05-13T10:30:50;30.30;33.90
77277;DHT22;66330;52.166;9.978;2023-05-13T10:33:16;30.80;33.20
77277;DHT22;66330;52.166;9.978;2023-05-13T10:35:49;31.30;32.90
77277;DHT22;66330;52.166;9.978;2023-05-13T10:38:45;31.80;32.00
77277;DHT22;66330;52.166;9.978;2023-05-13T10:44:10;33.00;30.20
77277;DHT22;66330;52.166;9.978;2023-05-13T10:46:36;33.30;30.20
77277;DHT22;66330;52.166;9.978;2023-05-13T10:49:04;33.70;29.80
77277;DHT22;66330;52.166;9.978;2023-05-13T10:51:29;33.90;29.30
77277;DHT22;66330;52.166;9.978;2023-05-13T10:53:56;34.20;29.20
77277;DHT22;66330;52.166;9.978;2023-05-13T10:56:24;34.40;28.80
77277;DHT22;66330;52.166;9.978;2023-05-13T10:59:01;34.60;28.40
77277;DHT22;66330;52.166;9.978;2023-05-13T11:01:36;34.80;27.80
77277;DHT22;66330;52.166;9.978;2023-05-13T11:04:12;35.10;27.50
77277;DHT22;66330;52.166;9.978;2023-05-13T11:06:40;35.50;27.30
77277;DHT22;66330;52.166;9.978;2023-05-13T11:11:52;36.20;26.60
77277;DHT22;66330;52.166;9.978;2023-05-13T11:14:25;36.60;26.30
77277;DHT22;66330;52.166;9.978;2023-05-13T11:17:10;36.80;26.00
77277;DHT22;66330;52.166;9.978;2023-05-13T11:19:55;37.10;25.50
77277;DHT22;66330;52.166;9.978;2023-05-13T11:22:22;37.40;25.20
77277;DHT22;66330;52.166;9.978;2023-05-13T11:25:08;37.70;25.20
77277;DHT22;66330;52.166;9.978;2023-05-13T11:27:38;37.90;24.70
77277;DHT22;66330;52.166;9.978;2023-05-13T11:30:05;38.10;24.40
77277;DHT22;66330;52.166;9.978;2023-05-13T11:35:27;38.60;24.00
77277;DHT22;66330;52.166;9.978;2023-05-13T11:37:54;38.80;23.80
77277;DHT22;66330;52.166;9.978;2023-05-13T11:40:23;39.00;24.20
77277;DHT22;66330;52.166;9.978;2023-05-13T11:42:49;39.30;23.60
77277;DHT22;66330;52.166;9.978;2023-05-13T11:45:16;39.50;23.50
77277;DHT22;66330;52.166;9.978;2023-05-13T11:47:42;39.70;23.40
77277;DHT22;66330;52.166;9.978;2023-05-13T11:50:28;39.70;22.40
77277;DHT22;66330;52.166;9.978;2023-05-13T11:53:00;39.60;22.20
77277;DHT22;66330;52.166;9.978;2023-05-13T11:55:30;39.50;22.60
77277;DHT22;66330;52.166;9.978;2023-05-13T11:57:57;39.60;22.30
77277;DHT22;66330;52.166;9.978;2023-05-13T12:00:27;39.60;22.30
77277;DHT22;66330;52.166;9.978;2023-05-13T12:02:54;39.80;22.40
77277;DHT22;66330;52.166;9.978;2023-05-13T12:05:19;40.10;22.00
77277;DHT22;66330;52.166;9.978;2023-05-13T12:07:45;40.30;22.10
77277;DHT22;66330;52.166;9.978;2023-05-13T12:10:11;40.40;21.90
77277;DHT22;66330;52.166;9.978;2023-05-13T12:12:40;40.60;21.70
77277;DHT22;66330;52.166;9.978;2023-05-13T12:15:12;40.70;21.60
77277;DHT22;66330;52.166;9.978;2023-05-13T12:17:38;40.80;21.70
77277;DHT22;66330;52.166;9.978;2023-05-13T12:20:21;41.00;21.40
77277;DHT22;66330;52.166;9.978;2023-05-13T12:25:32;41.20;21.10
77277;DHT22;66330;52.166;9.978;2023-05-13T12:28:20;41.30;20.50
77277;DHT22;66330;52.166;9.978;2023-05-13T12:30:58;41.20;20.20
77277;DHT22;66330;52.166;9.978;2023-05-13T12:33:29;40.70;20.40
77277;DHT22;66330;52.166;9.978;2023-05-13T12:36:20;40.00;20.40
77277;DHT22;66330;52.166;9.978;2023-05-13T12:38:57;39.50;20.60
77277;DHT22;66330;52.166;9.978;2023-05-13T12:41:24;39.40;21.00
77277;DHT22;66330;52.166;9.978;2023-05-13T12:44:02;39.40;21.00
77277;DHT22;66330;52.166;9.978;2023-05-13T12:46:28;39.40;20.70
77277;DHT22;66330;52.166;9.978;2023-05-13T12:48:55;39.50;20.90
77277;DHT22;66330;52.166;9.978;2023-05-13T12:51:21;39.80;20.70
77277;DHT22;66330;52.166;9.978;2023-05-13T12:53:47;40.10;20.20
77277;DHT22;66330;52.166;9.978;2023-05-13T12:56:12;40.30;20.00
77277;DHT22;66330;52.166;9.978;2023-05-13T12:58:38;40.40;19.80
77277;DHT22;66330;52.166;9.978;2023-05-13T13:01:04;40.60;19.50
77277;DHT22;66330;52.166;9.978;2023-05-13T13:03:30;40.70;19.60
77277;DHT22;66330;52.166;9.978;2023-05-13T13:05:55;40.80;19.40
77277;DHT22;66330;52.166;9.978;2023-05-13T13:08:22;40.40;19.00
77277;DHT22;66330;52.166;9.978;2023-05-13T13:10:48;39.20;18.60
77277;DHT22;66330;52.166;9.978;2023-05-13T13:13:13;38.10;19.00
77277;DHT22;66330;52.166;9.978;2023-05-13T13:15:39;37.60;19.90
77277;DHT22;66330;52.166;9.978;2023-05-13T13:18:05;37.70;20.10
77277;DHT22;66330;52.166;9.978;2023-05-13T13:20:30;38.00;20.10
77277;DHT22;66330;52.166;9.978;2023-05-13T13:22:56;38.50;20.00
77277;DHT22;66330;52.166;9.978;2023-05-13T13:25:24;38.80;19.80
77277;DHT22;66330;52.166;9.978;2023-05-13T13:27:50;38.90;19.40
77277;DHT22;66330;52.166;9.978;2023-05-13T13:30:15;38.20;19.10
77277;DHT22;66330;52.166;9.978;2023-05-13T13:32:41;37.00;19.10
77277;DHT22;66330;52.166;9.978;2023-05-13T13:35:07;35.90;19.50
77277;DHT22;66330;52.166;9.978;2023-05-13T13:37:32;35.50;20.40
77277;DHT22;66330;52.166;9.978;2023-05-13T13:39:58;35.70;20.90
77277;DHT22;66330;52.166;9.978;2023-05-13T13:42:23;36.00;20.70
77277;DHT22;66330;52.166;9.978;2023-05-13T13:44:50;36.00;20.40
77277;DHT22;66330;52.166;9.978;2023-05-13T13:47:15;36.20;20.40
77277;DHT22;66330;52.166;9.978;2023-05-13T13:49:41;36.50;20.20
77277;DHT22;66330;52.166;9.978;2023-05-13T13:52:07;36.80;20.00
77277;DHT22;66330;52.166;9.978;2023-05-13T13:54:33;36.90;19.70
77277;DHT22;66330;52.166;9.978;2023-05-13T13:56:58;36.80;19.40
77277;DHT22;66330;52.166;9.978;2023-05-13T13:59:24;36.90;19.60
77277;DHT22;66330;52.166;9.978;2023-05-13T14:01:49;35.40;18.70
77277;DHT22;66330;52.166;9.978;2023-05-13T14:04:18;37.30;19.20
77277;DHT22;66330;52.166;9.978;2023-05-13T14:06:47;37.50;19.00
77277;DHT22;66330;52.166;9.978;2023-05-13T14:09:13;37.70;19.20
77277;DHT22;66330;52.166;9.978;2023-05-13T14:11:38;37.80;19.00
77277;DHT22;66330;52.166;9.978;2023-05-13T14:14:04;37.90;19.00
77277;DHT22;66330;52.166;9.978;2023-05-13T14:16:30;37.80;18.90
77277;DHT22;66330;52.166;9.978;2023-05-13T14:18:55;37.70;18.80
77277;DHT22;66330;52.166;9.978;2023-05-13T14:21:21;37.70;18.80
77277;DHT22;66330;52.166;9.978;2023-05-13T14:23:46;37.60;18.50
77277;DHT22;66330;52.166;9.978;2023-05-13T14:26:12;37.60;18.50
77277;DHT22;66330;52.166;9.978;2023-05-13T14:28:40;37.10;18.50
77277;DHT22;66330;52.166;9.978;2023-05-13T14:31:06;36.70;18.50
77277;DHT22;66330;52.166;9.978;2023-05-13T14:33:32;36.60;18.70
77277;DHT22;66330;52.166;9.978;2023-05-13T14:35:57;36.30;18.60
77277;DHT22;66330;52.166;9.978;2023-05-13T14:38:23;36.10;18.50
77277;DHT22;66330;52.166;9.978;2023-05-13T14:40:48;36.00;18.60
77277;DHT22;66330;52.166;9.978;2023-05-13T14:43:14;35.80;18.60
77277;DHT22;66330;52.166;9.978;2023-05-13T14:45:39;35.50;18.50
77277;DHT22;66330;52.166;9.978;2023-05-13T14:48:05;35.20;18.60
77277;DHT22;66330;52.166;9.978;2023-05-13T14:50:31;34.80;18.70
77277;DHT22;66330;52.166;9.978;2023-05-13T14:52:56;34.50;18.60
77277;DHT22;66330;52.166;9.978;2023-05-13T14:55:22;34.20;18.70
77277;DHT22;66330;52.166;9.978;2023-05-13T14:57:47;33.80;18.80
77277;DHT22;66330;52.166;9.978;2023-05-13T15:00:14;33.50;19.00
77277;DHT22;66330;52.166;9.978;2023-05-13T15:02:39;33.00;19.10
77277;DHT22;66330;52.166;9.978;2023-05-13T15:05:05;32.50;19.30
77277;DHT22;66330;52.166;9.978;2023-05-13T15:07:31;32.10;19.60
77277;DHT22;66330;52.166;9.978;2023-05-13T15:09:57;31.60;19.70
77277;DHT22;66330;52.166;9.978;2023-05-13T15:12:22;31.10;19.90
77277;DHT22;66330;52.166;9.978;2023-05-13T15:14:55;30.70;20.30
77277;DHT22;66330;52.166;9.978;2023-05-13T15:17:21;30.40;20.60
77277;DHT22;66330;52.166;9.978;2023-05-13T15:19:47;30.00;20.70
77277;DHT22;66330;52.166;9.978;2023-05-13T15:22:12;29.60;20.70
77277;DHT22;66330;52.166;9.978;2023-05-13T15:24:38;29.30;21.00
77277;DHT22;66330;52.166;9.978;2023-05-13T15:27:05;29.10;21.30
77277;DHT22;66330;52.166;9.978;2023-05-13T15:29:31;28.90;21.50
77277;DHT22;66330;52.166;9.978;2023-05-13T15:31:57;28.60;21.80
77277;DHT22;66330;52.166;9.978;2023-05-13T15:34:23;28.40;21.90
77277;DHT22;66330;52.166;9.978;2023-05-13T15:36:49;28.20;22.60
77277;DHT22;66330;52.166;9.978;2023-05-13T15:39:14;28.00;22.40
77277;DHT22;66330;52.166;9.978;2023-05-13T15:41:43;27.70;22.50
77277;DHT22;66330;52.166;9.978;2023-05-13T15:44:08;27.50;22.70
77277;DHT22;66330;52.166;9.978;2023-05-13T15:46:34;27.30;23.00
77277;DHT22;66330;52.166;9.978;2023-05-13T15:49:00;27.10;23.30
77277;DHT22;66330;52.166;9.978;2023-05-13T15:51:26;27.00;23.60
77277;DHT22;66330;52.166;9.978;2023-05-13T15:53:52;26.80;23.80
77277;DHT22;66330;52.166;9.978;2023-05-13T15:56:18;26.60;24.10
77277;DHT22;66330;52.166;9.978;2023-05-13T15:58:44;26.50;24.30
77277;DHT22;66330;52.166;9.978;2023-05-13T16:01:10;26.30;24.50
77277;DHT22;66330;52.166;9.978;2023-05-13T16:03:35;26.10;24.80
77277;DHT22;66330;52.166;9.978;2023-05-13T16:06:01;26.00;25.00
77277;DHT22;66330;52.166;9.978;2023-05-13T16:08:27;25.90;25.20